Elvira, Argentina
Current Conditions -  °F | °C
As of 10:00 AM on Thursday 30 Oct 2014 (Local Time) from SAEZ Reporting Station
Broken Clouds Broken Clouds  
Wind Chill: 68°   Ceiling: 20000
Heat Index: 68°   Visibility: 6mi
Dew Point: 57°   Wind: 2mph
Humidity: 68%   Direction: NA
Pressure: 29.88"   Gusts: NA
Location:  35.2°S, 59.35°W
Report Text: SAEZ 301300Z VRB02KT 9999 FEW033 BKN200 20/14 Q1012
Loading
Personal Weather Stations






























Interactive Weather Map
Tropical Storm Tracking
New forecast layout! Learn more

10-Day Weather Forecast

Advertisements
Track Severe Weather on mobile